Time;durP1;ratioP1;P1;durP2;ratioP2;P2;SDS_P1;SDS_P2;PMS_P1;PMS_P2;Temp;Humidity;BMP_temperature;BMP_pressure;BME280_temperature;BME280_humidity;BME280_pressure;Samples;Min_cycle;Max_cycle;Signal;HPM_P1;HPM_P2
2022/09/23 00:00:33;;;;;;;11.00;9.07;;;10.70;99.90;;;;;;5021451;28;20046;-73
2022/09/23 00:02:59;;;;;;;10.73;7.97;;;10.50;99.90;;;;;;5015893;28;20132;-74
2022/09/23 00:05:29;;;;;;;14.75;9.25;;;10.60;99.90;;;;;;5026417;28;20495;-75
2022/09/23 00:07:55;;;;;;;16.52;9.43;;;10.60;99.90;;;;;;5026743;28;20051;-75
2022/09/23 00:10:23;;;;;;;9.70;8.70;;;10.60;99.90;;;;;;5029850;28;20049;-75
2022/09/23 00:12:49;;;;;;;10.15;9.02;;;10.50;99.90;;;;;;5012628;28;20054;-74
2022/09/23 00:15:15;;;;;;;11.35;9.30;;;10.60;99.90;;;;;;5023414;28;20091;-74
2022/09/23 00:17:41;;;;;;;10.00;9.10;;;10.50;99.90;;;;;;5066431;28;20048;-76
2022/09/23 00:20:08;;;;;;;20.55;10.48;;;10.60;99.90;;;;;;5067223;28;20033;-73
2022/09/23 00:22:37;;;;;;;12.05;9.57;;;10.60;99.90;;;;;;5069701;28;20036;-74
2022/09/23 00:25:08;;;;;;;11.40;9.60;;;10.60;99.90;;;;;;5068707;28;20032;-73
2022/09/23 00:27:34;;;;;;;12.15;10.23;;;10.60;99.90;;;;;;5068414;28;20053;-74
2022/09/23 00:30:00;;;;;;;14.85;10.13;;;10.60;99.90;;;;;;5038752;28;20047;-72
2022/09/23 00:32:26;;;;;;;10.10;9.02;;;10.60;99.90;;;;;;5071051;28;20089;-74
2022/09/23 00:34:52;;;;;;;11.43;9.93;;;10.60;99.90;;;;;;5074183;28;20583;-74
2022/09/23 00:37:19;;;;;;;12.40;10.40;;;10.50;99.90;;;;;;5071168;28;20044;-75
2022/09/23 00:39:45;;;;;;;12.70;9.70;;;10.60;99.90;;;;;;5049474;28;20097;-73
2022/09/23 00:42:15;;;;;;;11.23;9.38;;;10.60;99.90;;;;;;5069608;28;20405;-73
2022/09/23 00:44:48;;;;;;;15.98;11.13;;;10.60;99.90;;;;;;5072779;28;20076;-73
2022/09/23 00:47:36;;;;;;;11.98;10.02;;;10.60;99.90;;;;;;5070067;28;20105;-74
2022/09/23 00:50:09;;;;;;;12.25;10.05;;;10.60;99.90;;;;;;5058560;28;20040;-74
2022/09/23 00:52:35;;;;;;;19.45;12.55;;;10.50;99.90;;;;;;5067270;28;20085;-73
2022/09/23 00:55:07;;;;;;;13.95;11.32;;;10.50;99.90;;;;;;5073337;28;20043;-73
2022/09/23 00:57:36;;;;;;;12.73;11.15;;;10.60;99.90;;;;;;5063623;28;20368;-74
2022/09/23 01:00:03;;;;;;;13.93;11.70;;;10.50;99.90;;;;;;5069531;28;20048;-75
2022/09/23 01:02:30;;;;;;;14.45;11.00;;;10.50;99.90;;;;;;5046423;28;20086;-76
2022/09/23 01:04:57;;;;;;;13.25;11.70;;;10.50;99.90;;;;;;5066485;28;20078;-75
2022/09/23 01:07:23;;;;;;;15.98;11.80;;;10.50;99.90;;;;;;5068525;28;20087;-73
2022/09/23 01:09:49;;;;;;;14.35;12.90;;;10.50;99.90;;;;;;5069380;28;20059;-75
2022/09/23 01:12:43;;;;;;;13.95;11.35;;;10.40;99.90;;;;;;5063486;28;20173;-73
2022/09/23 01:15:32;;;;;;;14.25;12.85;;;10.50;99.90;;;;;;5067107;28;20090;-75
2022/09/23 01:18:42;;;;;;;15.02;11.77;;;10.50;99.90;;;;;;5078428;28;20053;-75
2022/09/23 01:21:42;;;;;;;11.73;10.63;;;10.50;99.90;;;;;;5052342;28;20056;-73
2022/09/23 01:24:25;;;;;;;13.93;12.48;;;10.50;99.90;;;;;;5057657;28;20564;-75
2022/09/23 01:26:53;;;;;;;18.75;13.65;;;10.40;99.90;;;;;;5063211;28;20041;-75
2022/09/23 01:29:50;;;;;;;20.48;11.82;;;10.40;99.90;;;;;;5067463;28;20573;-74
2022/09/23 01:32:41;;;;;;;17.73;12.32;;;10.40;99.90;;;;;;5059521;28;20044;-74
2022/09/23 01:35:12;;;;;;;16.35;14.52;;;10.50;99.90;;;;;;5047022;28;20483;-75
2022/09/23 01:37:56;;;;;;;16.23;13.55;;;10.40;99.90;;;;;;5066396;28;20049;-74
2022/09/23 01:40:24;;;;;;;19.30;13.73;;;10.40;99.90;;;;;;5064331;28;20142;-76
2022/09/23 01:43:08;;;;;;;14.25;12.18;;;10.40;99.90;;;;;;5033596;28;20494;-75
2022/09/23 01:45:45;;;;;;;16.55;14.65;;;10.50;99.90;;;;;;5026036;28;20094;-75
2022/09/23 01:48:39;;;;;;;13.18;11.98;;;10.40;99.90;;;;;;5067057;28;20033;-75
2022/09/23 01:51:07;;;;;;;16.23;12.20;;;10.50;99.90;;;;;;5060328;28;20145;-75
2022/09/23 01:53:50;;;;;;;17.40;12.52;;;10.40;99.90;;;;;;5056682;28;20072;-74
2022/09/23 01:56:22;;;;;;;15.55;13.30;;;10.40;99.90;;;;;;5070795;28;20029;-75
2022/09/23 01:59:01;;;;;;;15.23;13.35;;;10.40;99.90;;;;;;5070323;28;20135;-74
2022/09/23 02:01:36;;;;;;;12.80;10.65;;;10.40;99.90;;;;;;5074427;28;20118;-73
2022/09/23 02:04:16;;;;;;;14.48;12.05;;;10.20;99.90;;;;;;5059181;28;20380;-75
2022/09/23 02:06:51;;;;;;;15.50;12.95;;;10.20;99.90;;;;;;5048727;28;20484;-75
2022/09/23 02:09:23;;;;;;;15.80;13.15;;;10.20;99.90;;;;;;5048595;28;20794;-74
2022/09/23 02:11:52;;;;;;;16.30;13.70;;;10.10;99.90;;;;;;5053023;28;20556;-75
2022/09/23 02:14:30;;;;;;;12.52;11.32;;;10.10;99.90;;;;;;5065031;28;20445;-74
2022/09/23 02:17:02;;;;;;;15.02;12.82;;;10.20;99.90;;;;;;5058236;28;20059;-75
2022/09/23 02:19:46;;;;;;;15.82;11.95;;;10.10;99.90;;;;;;5065260;28;20439;-75
2022/09/23 02:22:30;;;;;;;15.95;12.90;;;10.20;99.90;;;;;;5052994;28;20140;-75
2022/09/23 02:24:57;;;;;;;17.95;13.90;;;10.20;99.90;;;;;;5062589;28;20067;-75
2022/09/23 02:27:24;;;;;;;15.93;13.13;;;10.20;99.90;;;;;;5051154;28;20032;-76
2022/09/23 02:30:02;;;;;;;19.35;16.45;;;10.20;99.90;;;;;;5069339;28;20097;-73
2022/09/23 02:32:31;;;;;;;21.98;13.30;;;10.20;99.90;;;;;;5067642;28;20128;-76
2022/09/23 02:35:31;;;;;;;19.42;13.88;;;10.10;99.90;;;;;;5067062;28;20055;-73
2022/09/23 02:38:24;;;;;;;15.30;12.07;;;10.20;99.90;;;;;;5013542;28;20477;-74
2022/09/23 02:41:08;;;;;;;14.95;13.45;;;10.10;99.90;;;;;;5054061;28;20044;-74
2022/09/23 02:43:52;;;;;;;15.65;13.75;;;10.00;99.90;;;;;;5062854;28;20411;-75
2022/09/23 02:46:19;;;;;;;21.27;14.65;;;10.00;99.90;;;;;;5067574;28;20048;-75
2022/09/23 02:48:55;;;;;;;14.60;13.07;;;10.00;99.90;;;;;;5060117;28;20054;-75
2022/09/23 02:51:25;;;;;;;15.32;12.18;;;10.00;99.90;;;;;;5051670;28;20518;-75
2022/09/23 02:53:55;;;;;;;20.98;15.88;;;9.90;99.90;;;;;;5053537;28;20121;-73
2022/09/23 02:56:21;;;;;;;15.80;13.07;;;9.80;99.90;;;;;;5069080;28;20091;-74
2022/09/23 02:58:50;;;;;;;16.35;12.88;;;9.90;99.90;;;;;;5070858;28;20072;-75
2022/09/23 03:01:20;;;;;;;15.55;13.85;;;9.70;99.90;;;;;;5061318;28;20513;-75
2022/09/23 03:03:48;;;;;;;17.55;13.88;;;9.90;99.90;;;;;;5068312;28;20044;-74
2022/09/23 03:06:26;;;;;;;17.85;14.75;;;9.80;99.90;;;;;;5063857;28;20032;-74
2022/09/23 03:09:04;;;;;;;14.82;13.32;;;9.80;99.90;;;;;;5066104;28;20043;-74
2022/09/23 03:11:31;;;;;;;14.93;12.45;;;9.90;99.90;;;;;;5064643;28;20076;-76
2022/09/23 03:14:16;;;;;;;16.73;14.18;;;9.80;99.90;;;;;;5068075;28;20036;-74
2022/09/23 03:16:48;;;;;;;18.13;13.25;;;9.80;99.90;;;;;;5051979;28;20053;-74
2022/09/23 03:19:33;;;;;;;19.45;15.15;;;9.80;99.90;;;;;;5070211;28;20044;-74
2022/09/23 03:22:21;;;;;;;14.80;11.90;;;9.70;99.90;;;;;;5046017;28;20064;-76
2022/09/23 03:24:49;;;;;;;19.52;13.15;;;9.60;99.90;;;;;;5066932;28;20063;-76
2022/09/23 03:27:22;;;;;;;16.27;12.95;;;9.50;99.90;;;;;;5053025;28;20056;-74
2022/09/23 03:29:50;;;;;;;16.92;12.55;;;9.60;99.90;;;;;;5072617;28;20033;-74
2022/09/23 03:32:19;;;;;;;16.33;12.75;;;9.50;99.90;;;;;;5063489;28;20033;-74
2022/09/23 03:34:48;;;;;;;14.83;12.77;;;9.50;99.90;;;;;;5066787;28;20041;-72
2022/09/23 03:37:30;;;;;;;15.50;12.47;;;9.50;99.90;;;;;;5068813;28;20032;-74
2022/09/23 03:40:11;;;;;;;13.02;11.63;;;9.40;99.90;;;;;;5060544;28;20052;-74
2022/09/23 03:42:37;;;;;;;16.10;14.23;;;9.50;99.90;;;;;;5069083;28;20045;-74
2022/09/23 03:45:07;;;;;;;15.40;13.60;;;9.40;99.90;;;;;;5059906;28;20089;-76
2022/09/23 03:47:34;;;;;;;17.73;13.27;;;9.40;99.90;;;;;;5065301;28;20044;-75
2022/09/23 03:50:00;;;;;;;17.50;13.65;;;9.50;99.90;;;;;;5070489;28;20047;-73
2022/09/23 03:52:26;;;;;;;15.48;13.10;;;9.50;99.90;;;;;;5066354;28;20037;-73
2022/09/23 03:54:52;;;;;;;26.17;15.52;;;9.40;99.90;;;;;;5065652;28;20045;-74
2022/09/23 03:57:21;;;;;;;17.75;14.32;;;9.50;99.90;;;;;;5046311;28;20045;-73
2022/09/23 03:59:50;;;;;;;15.55;13.93;;;9.40;99.90;;;;;;5066927;28;20477;-74
2022/09/23 04:02:17;;;;;;;16.10;13.65;;;9.40;99.90;;;;;;5067877;28;20085;-75
2022/09/23 04:04:42;;;;;;;17.67;13.48;;;9.50;99.90;;;;;;5083237;28;20154;-73
2022/09/23 04:07:09;;;;;;;17.90;14.75;;;9.40;99.90;;;;;;5067597;28;20479;-74
2022/09/23 04:09:35;;;;;;;16.73;13.35;;;9.40;99.90;;;;;;5063523;28;20052;-74
2022/09/23 04:12:02;;;;;;;15.80;13.25;;;9.40;99.90;;;;;;5054559;28;20169;-75
2022/09/23 04:14:28;;;;;;;19.13;14.60;;;9.40;99.90;;;;;;5061272;28;20048;-74
2022/09/23 04:16:54;;;;;;;16.83;14.15;;;9.40;99.90;;;;;;5060111;28;20071;-75
2022/09/23 04:19:20;;;;;;;14.18;12.60;;;9.30;99.90;;;;;;5065317;28;20052;-74
2022/09/23 04:21:46;;;;;;;15.95;12.02;;;9.40;99.90;;;;;;5066466;28;20661;-74
2022/09/23 04:24:13;;;;;;;18.02;12.35;;;9.30;99.90;;;;;;5062270;28;20045;-72
2022/09/23 04:26:39;;;;;;;17.45;12.65;;;9.40;99.90;;;;;;5070894;28;20050;-72
2022/09/23 04:29:05;;;;;;;14.13;12.35;;;9.40;99.90;;;;;;5070725;28;20491;-75
2022/09/23 04:31:31;;;;;;;15.23;13.18;;;9.40;99.90;;;;;;5067649;28;20047;-74
2022/09/23 04:33:57;;;;;;;15.63;13.35;;;9.30;99.90;;;;;;5066723;28;20175;-73
2022/09/23 04:36:23;;;;;;;15.75;14.00;;;9.30;99.90;;;;;;5065136;28;20056;-74
2022/09/23 04:38:50;;;;;;;15.68;13.70;;;9.30;99.90;;;;;;5052910;28;20107;-73
2022/09/23 04:41:17;;;;;;;16.83;13.73;;;9.30;99.90;;;;;;5067394;28;20380;-75
2022/09/23 04:43:43;;;;;;;26.55;15.55;;;9.30;99.90;;;;;;5066839;28;20044;-74
2022/09/23 04:46:10;;;;;;;16.70;14.50;;;9.20;99.90;;;;;;5066676;28;20039;-74
2022/09/23 04:48:37;;;;;;;14.90;13.10;;;9.40;99.90;;;;;;5074141;28;20041;-74
2022/09/23 04:51:11;;;;;;;16.65;13.18;;;9.30;99.90;;;;;;5062413;28;20040;-73
2022/09/23 04:53:39;;;;;;;15.00;13.30;;;9.30;99.90;;;;;;5067721;28;20049;-74
2022/09/23 04:56:26;;;;;;;23.45;15.88;;;9.30;99.90;;;;;;5063148;28;20382;-73
2022/09/23 04:58:52;;;;;;;18.02;13.20;;;9.20;99.90;;;;;;5060421;28;20495;-74
2022/09/23 05:01:25;;;;;;;16.67;13.77;;;9.30;99.90;;;;;;5036122;28;20057;-74
2022/09/23 05:03:56;;;;;;;20.15;16.08;;;9.20;99.90;;;;;;5062356;28;20529;-73
2022/09/23 05:06:23;;;;;;;15.60;13.07;;;9.30;99.90;;;;;;5065463;28;20048;-72
2022/09/23 05:08:53;;;;;;;22.48;13.63;;;9.20;99.90;;;;;;5057794;28;20462;-73
2022/09/23 05:11:20;;;;;;;16.13;13.80;;;9.20;99.90;;;;;;5063694;28;20622;-73
2022/09/23 05:13:47;;;;;;;15.13;13.50;;;9.10;99.90;;;;;;5055700;28;20040;-73
2022/09/23 05:16:13;;;;;;;17.50;14.02;;;9.20;99.90;;;;;;5048027;28;20053;-74
2022/09/23 05:18:41;;;;;;;15.57;12.82;;;9.20;99.90;;;;;;5063510;28;20041;-72
2022/09/23 05:21:09;;;;;;;19.27;16.13;;;9.20;99.90;;;;;;5069116;28;20055;-75
2022/09/23 05:23:36;;;;;;;17.02;13.05;;;9.20;99.90;;;;;;5064457;28;20086;-72
2022/09/23 05:26:05;;;;;;;17.05;14.90;;;9.30;99.90;;;;;;5054953;28;20041;-73
2022/09/23 05:28:32;;;;;;;16.50;14.70;;;9.30;99.90;;;;;;5047899;28;20052;-73
2022/09/23 05:31:04;;;;;;;17.17;14.85;;;9.20;99.90;;;;;;5053069;28;20499;-73
2022/09/23 05:33:33;;;;;;;19.15;14.98;;;9.20;99.90;;;;;;5031562;28;20155;-73
2022/09/23 05:35:59;;;;;;;20.70;15.77;;;9.30;99.90;;;;;;5066998;28;20086;-73
2022/09/23 05:38:26;;;;;;;19.73;14.93;;;9.30;99.90;;;;;;5049819;28;20060;-73
2022/09/23 05:40:57;;;;;;;20.10;15.02;;;9.30;99.90;;;;;;5068064;28;20043;-74
2022/09/23 05:43:23;;;;;;;;;;;9.30;99.90;;;;;;5065117;28;20051;-76
2022/09/23 05:45:49;;;;;;;17.27;13.50;;;9.30;99.90;;;;;;5056155;28;19924;-74
2022/09/23 05:48:15;;;;;;;18.10;13.88;;;9.30;99.90;;;;;;5046881;28;20040;-74
2022/09/23 05:50:51;;;;;;;17.63;14.18;;;9.40;99.90;;;;;;5047769;28;20045;-73
2022/09/23 05:53:17;;;;;;;16.65;14.40;;;9.40;99.90;;;;;;5054846;28;20413;-74
2022/09/23 05:55:44;;;;;;;19.50;14.68;;;9.40;99.90;;;;;;5040605;28;20049;-73
2022/09/23 05:58:10;;;;;;;18.38;14.05;;;9.40;99.90;;;;;;5047565;28;20110;-73
2022/09/23 06:00:39;;;;;;;14.95;12.43;;;9.30;99.90;;;;;;5028939;28;20079;-71
2022/09/23 06:03:05;;;;;;;22.25;16.30;;;9.30;99.90;;;;;;5054010;28;20040;-73
2022/09/23 06:05:31;;;;;;;15.25;13.65;;;9.30;99.90;;;;;;5066795;28;20434;-74
2022/09/23 06:07:57;;;;;;;20.75;13.15;;;9.20;99.90;;;;;;5068220;28;20106;-72
2022/09/23 06:10:23;;;;;;;18.55;14.95;;;9.30;99.90;;;;;;5067894;28;20090;-73
2022/09/23 06:12:48;;;;;;;19.30;14.80;;;9.40;99.90;;;;;;5050693;28;20052;-72
2022/09/23 06:15:16;;;;;;;17.38;14.63;;;9.50;99.90;;;;;;5054384;28;20048;-73
2022/09/23 06:17:42;;;;;;;17.13;15.32;;;9.40;99.90;;;;;;5076680;28;20557;-73
2022/09/23 06:20:08;;;;;;;19.38;15.93;;;9.50;99.90;;;;;;5029914;28;20132;-78
2022/09/23 06:22:33;;;;;;;16.35;14.40;;;9.60;99.90;;;;;;5047186;28;20054;-73
2022/09/23 06:24:59;;;;;;;15.52;13.63;;;9.50;99.90;;;;;;5060841;28;20410;-72
2022/09/23 06:27:24;;;;;;;21.05;14.57;;;9.60;99.90;;;;;;5068050;28;20045;-74
2022/09/23 06:29:51;;;;;;;15.88;13.93;;;9.70;99.90;;;;;;5067033;28;20037;-74
2022/09/23 06:32:18;;;;;;;13.75;12.30;;;9.70;99.90;;;;;;5053214;28;20041;-75
2022/09/23 06:34:44;;;;;;;16.60;13.38;;;9.60;99.90;;;;;;5047532;28;20051;-73
2022/09/23 06:37:10;;;;;;;21.42;14.05;;;9.70;99.90;;;;;;5066932;28;20041;-73
2022/09/23 06:39:36;;;;;;;18.08;14.48;;;9.60;99.90;;;;;;5066380;28;20048;-74
2022/09/23 06:42:02;;;;;;;17.10;13.07;;;9.70;99.90;;;;;;5067535;28;20049;-74
2022/09/23 06:44:27;;;;;;;15.60;13.05;;;9.80;99.90;;;;;;5066212;28;20131;-74
2022/09/23 06:46:53;;;;;;;16.50;13.90;;;9.70;99.90;;;;;;5065422;28;20391;-73
2022/09/23 06:49:21;;;;;;;16.02;13.70;;;9.70;99.90;;;;;;5066869;28;20055;-74
2022/09/23 06:51:47;;;;;;;18.75;13.93;;;9.80;99.90;;;;;;5067437;28;20102;-74
2022/09/23 06:54:13;;;;;;;15.65;13.50;;;9.70;99.90;;;;;;5062709;28;20045;-74
2022/09/23 06:56:39;;;;;;;16.50;13.13;;;9.60;99.90;;;;;;5055695;28;20051;-73
2022/09/23 06:59:05;;;;;;;17.58;13.60;;;9.70;99.90;;;;;;5066721;28;20052;-73
2022/09/23 07:01:31;;;;;;;16.58;14.82;;;9.70;99.90;;;;;;5049254;28;20127;-73
2022/09/23 07:03:56;;;;;;;15.65;13.25;;;9.70;99.90;;;;;;5060900;28;20182;-72
2022/09/23 07:06:22;;;;;;;17.02;14.07;;;9.70;99.90;;;;;;5057377;28;20041;-73
2022/09/23 07:08:48;;;;;;;15.70;14.10;;;9.90;99.90;;;;;;5058961;28;20041;-73
2022/09/23 07:11:15;;;;;;;16.92;13.95;;;9.90;99.90;;;;;;5041126;28;20047;-74
2022/09/23 07:13:41;;;;;;;15.50;13.88;;;9.90;99.90;;;;;;5065750;28;20041;-74
2022/09/23 07:16:08;;;;;;;16.45;14.52;;;10.00;99.90;;;;;;5062890;28;20190;-75
2022/09/23 07:18:35;;;;;;;17.35;13.75;;;10.10;99.90;;;;;;5060172;28;20044;-74
2022/09/23 07:21:05;;;;;;;15.00;13.45;;;10.20;99.90;;;;;;5071286;28;20467;-76
2022/09/23 07:23:32;;;;;;;16.57;14.17;;;10.30;99.90;;;;;;5071712;28;20564;-74
2022/09/23 07:25:58;;;;;;;16.17;13.15;;;10.50;99.90;;;;;;5072610;28;20063;-75
2022/09/23 07:28:26;;;;;;;20.90;14.32;;;10.50;99.90;;;;;;4660724;22;22107;-75
2022/09/23 07:31:13;;;;;;;20.17;13.70;;;10.40;99.90;;;;;;5011237;28;20101;-74
2022/09/23 07:33:42;;;;;;;15.77;13.50;;;10.60;99.90;;;;;;5027466;28;20480;-74
2022/09/23 07:36:15;;;;;;;44.70;14.55;;;10.80;99.90;;;;;;5028187;28;20053;-72
2022/09/23 07:38:41;;;;;;;18.30;15.48;;;10.90;99.90;;;;;;5027891;28;20499;-73
2022/09/23 07:41:09;;;;;;;21.88;14.30;;;11.00;99.90;;;;;;5024623;28;20089;-73
2022/09/23 07:43:36;;;;;;;16.45;11.75;;;10.90;99.90;;;;;;5021680;28;20116;-72
2022/09/23 07:46:07;;;;;;;13.70;12.27;;;10.90;99.90;;;;;;5026516;28;20053;-75
2022/09/23 07:48:34;;;;;;;15.48;13.70;;;10.90;99.90;;;;;;5026067;28;20518;-73
2022/09/23 07:51:09;;;;;;;16.00;12.02;;;10.90;99.90;;;;;;5028182;28;20188;-75
2022/09/23 07:53:35;;;;;;;15.95;12.98;;;10.90;99.90;;;;;;5029674;28;20053;-76
2022/09/23 07:56:04;;;;;;;16.88;12.40;;;11.00;99.90;;;;;;5011509;28;20050;-75
2022/09/23 07:58:30;;;;;;;12.60;11.30;;;11.00;99.90;;;;;;5026887;28;20092;-74
2022/09/23 08:01:02;;;;;;;16.70;14.98;;;11.00;99.90;;;;;;5031686;28;20037;-78
2022/09/23 08:03:28;;;;;;;18.95;14.13;;;10.90;99.90;;;;;;5036293;28;20112;-72
2022/09/23 08:05:53;;;;;;;16.05;13.05;;;11.10;99.90;;;;;;5044606;28;20150;-76
2022/09/23 08:08:19;;;;;;;15.80;12.48;;;11.10;99.90;;;;;;5041498;28;20404;-76
2022/09/23 08:10:45;;;;;;;14.55;13.10;;;11.20;99.90;;;;;;5054589;28;20083;-72
2022/09/23 08:13:10;;;;;;;17.13;13.35;;;11.20;99.90;;;;;;5056462;28;20067;-73
2022/09/23 08:15:36;;;;;;;14.05;12.68;;;11.30;99.90;;;;;;5044537;28;20135;-77
2022/09/23 08:18:01;;;;;;;15.10;11.48;;;11.30;99.90;;;;;;5047380;28;20406;-79
2022/09/23 08:20:46;;;;;;;13.52;12.18;;;11.40;99.90;;;;;;5056862;28;20519;-74
2022/09/23 08:23:13;;;;;;;12.65;11.38;;;11.60;99.90;;;;;;5070819;28;20489;-76
2022/09/23 08:25:40;;;;;;;14.32;12.82;;;11.50;99.90;;;;;;5054316;28;20057;-77
2022/09/23 08:28:07;;;;;;;12.85;11.52;;;11.70;99.90;;;;;;5069015;28;20068;-75
2022/09/23 08:30:32;;;;;;;19.40;14.73;;;11.80;99.90;;;;;;5049587;28;20391;-72
2022/09/23 08:32:58;;;;;;;14.43;11.77;;;11.70;99.90;;;;;;5051464;28;20052;-75
2022/09/23 08:35:24;;;;;;;13.13;11.77;;;11.90;99.90;;;;;;5056869;28;20053;-77
2022/09/23 08:37:49;;;;;;;17.65;13.07;;;11.80;99.90;;;;;;5060174;28;20039;-71
2022/09/23 08:40:15;;;;;;;13.80;11.63;;;12.00;99.90;;;;;;5035615;28;20060;-75
2022/09/23 08:42:44;;;;;;;13.65;11.23;;;12.00;99.90;;;;;;5049493;28;20044;-72
2022/09/23 08:45:19;;;;;;;13.25;11.95;;;12.00;99.90;;;;;;5045549;28;20104;-73
2022/09/23 08:48:08;;;;;;;19.15;11.75;;;12.30;99.90;;;;;;5058990;28;20037;-77
2022/09/23 08:50:47;;;;;;;14.98;12.95;;;12.30;99.90;;;;;;5022148;28;20037;-75
2022/09/23 08:53:22;;;;;;;17.83;12.20;;;12.30;99.90;;;;;;5026631;28;20049;-75
2022/09/23 08:55:50;;;;;;;14.73;10.75;;;12.30;99.90;;;;;;5026893;28;20051;-73
2022/09/23 08:58:35;;;;;;;16.60;11.73;;;12.50;99.90;;;;;;5039517;28;20064;-73
2022/09/23 09:01:25;;;;;;;15.40;11.32;;;12.60;99.90;;;;;;5044362;28;20554;-73
2022/09/23 09:03:52;;;;;;;;;;;12.70;99.90;;;;;;5056033;28;20112;-75
2022/09/23 09:06:53;;;;;;;14.55;12.00;;;12.80;99.90;;;;;;5045391;28;19960;-75
2022/09/23 09:09:28;;;;;;;12.93;10.73;;;13.00;99.90;;;;;;5035572;28;20453;-74
2022/09/23 09:12:02;;;;;;;14.43;11.27;;;13.00;99.90;;;;;;5049858;28;20087;-75
2022/09/23 09:14:34;;;;;;;13.02;10.27;;;13.10;99.90;;;;;;5047964;28;20076;-74
2022/09/23 09:17:09;;;;;;;12.90;11.50;;;13.20;99.90;;;;;;5038467;28;20499;-74
2022/09/23 09:19:54;;;;;;;12.00;9.73;;;13.30;99.90;;;;;;5038862;28;20067;-75
2022/09/23 09:22:48;;;;;;;15.32;9.93;;;13.30;99.90;;;;;;5041343;28;20440;-76
2022/09/23 09:25:40;;;;;;;13.20;10.32;;;13.30;99.90;;;;;;5041656;28;20051;-75
2022/09/23 09:28:34;;;;;;;18.10;11.25;;;13.20;99.90;;;;;;5038950;28;20184;-76
2022/09/23 09:31:17;;;;;;;11.32;9.73;;;13.30;99.90;;;;;;5036789;28;20536;-75
2022/09/23 09:34:27;;;;;;;14.40;11.13;;;13.20;99.90;;;;;;5046503;28;20052;-76
2022/09/23 09:37:00;;;;;;;18.73;10.88;;;13.40;99.90;;;;;;5025413;28;20057;-75
2022/09/23 09:39:26;;;;;;;15.48;10.15;;;13.30;99.90;;;;;;5046449;28;20466;-76
2022/09/23 09:41:58;;;;;;;13.98;9.82;;;13.40;99.90;;;;;;5038110;28;20045;-72
2022/09/23 09:44:34;;;;;;;21.00;11.57;;;13.40;99.90;;;;;;5041075;28;20070;-74
2022/09/23 09:47:32;;;;;;;19.15;10.70;;;13.50;99.90;;;;;;5040917;28;20107;-74
2022/09/23 09:50:10;;;;;;;13.35;9.70;;;13.60;99.90;;;;;;5020987;28;20123;-76
2022/09/23 09:52:35;;;;;;;12.52;11.25;;;13.40;99.90;;;;;;5045929;28;20123;-76
2022/09/23 09:55:23;;;;;;;26.27;11.88;;;13.50;99.90;;;;;;5027747;28;20614;-74
2022/09/23 09:58:03;;;;;;;11.43;9.02;;;13.60;99.90;;;;;;5027820;28;20127;-74
2022/09/23 10:00:29;;;;;;;19.27;11.90;;;13.60;99.90;;;;;;5036708;28;20387;-72
2022/09/23 10:03:02;;;;;;;18.80;10.07;;;13.60;99.90;;;;;;5047901;28;20479;-73
2022/09/23 10:05:45;;;;;;;17.80;12.02;;;13.70;99.90;;;;;;5035540;28;20067;-72
2022/09/23 10:08:33;;;;;;;12.15;10.43;;;13.70;99.90;;;;;;5027238;28;20038;-73
2022/09/23 10:11:08;;;;;;;12.00;9.82;;;13.80;99.90;;;;;;5038370;28;20052;-74
2022/09/23 10:13:35;;;;;;;15.02;9.45;;;13.80;99.90;;;;;;5044876;28;20049;-75
2022/09/23 10:16:02;;;;;;;13.02;11.05;;;13.90;99.90;;;;;;5040076;28;20089;-74
2022/09/23 10:18:28;;;;;;;16.48;11.48;;;14.00;99.90;;;;;;5051504;28;20052;-72
2022/09/23 10:21:09;;;;;;;13.55;9.93;;;14.00;99.90;;;;;;5045365;28;20041;-75
2022/09/23 10:23:51;;;;;;;11.85;10.52;;;14.10;99.90;;;;;;5045612;28;20048;-75
2022/09/23 10:26:31;;;;;;;23.35;11.02;;;14.30;99.90;;;;;;5045378;28;20056;-74
2022/09/23 10:29:01;;;;;;;14.65;11.57;;;14.10;99.90;;;;;;5039869;28;20423;-72
2022/09/23 10:31:29;;;;;;;17.70;11.27;;;14.30;99.90;;;;;;5050294;28;20106;-74
2022/09/23 10:34:27;;;;;;;12.50;10.52;;;14.40;99.90;;;;;;5028953;28;20044;-75
2022/09/23 10:37:14;;;;;;;13.88;10.73;;;14.50;99.90;;;;;;5043210;28;20055;-75
2022/09/23 10:56:05;;;;;;;14.23;11.88;;;14.80;99.90;;;;;;5043014;28;20049;-73
2022/09/23 10:59:01;;;;;;;14.98;12.07;;;14.70;99.90;;;;;;5046930;28;20044;-74
2022/09/23 11:01:44;;;;;;;16.33;12.27;;;14.80;99.90;;;;;;5050068;28;20045;-75
2022/09/23 11:04:41;;;;;;;15.88;11.30;;;14.80;99.90;;;;;;5035154;28;20487;-75
2022/09/23 11:07:17;;;;;;;13.73;11.68;;;14.90;99.90;;;;;;5049115;28;20087;-75
2022/09/23 11:10:09;;;;;;;17.52;12.85;;;14.80;99.90;;;;;;5046784;28;20127;-75
2022/09/23 11:13:00;;;;;;;15.63;11.90;;;14.80;99.90;;;;;;5029742;28;20143;-72
2022/09/23 11:15:35;;;;;;;13.98;11.48;;;14.80;99.90;;;;;;5053312;28;20044;-75
2022/09/23 11:18:10;;;;;;;18.45;13.15;;;15.00;99.90;;;;;;5049118;28;20106;-75
2022/09/23 11:21:06;;;;;;;13.70;12.35;;;15.00;99.90;;;;;;5063757;28;20032;-75
2022/09/23 11:23:40;;;;;;;14.75;12.77;;;14.90;99.90;;;;;;5060611;28;20049;-74
2022/09/23 11:26:18;;;;;;;18.45;13.15;;;14.80;99.90;;;;;;5048291;28;20051;-75
2022/09/23 11:29:17;;;;;;;21.42;13.68;;;14.80;99.90;;;;;;5025984;28;20060;-76
2022/09/23 11:32:06;;;;;;;21.42;15.05;;;14.90;99.90;;;;;;5062855;28;20135;-71
2022/09/23 11:34:37;;;;;;;15.55;13.63;;;15.10;99.90;;;;;;5052613;28;20092;-72
2022/09/23 11:37:14;;;;;;;16.10;13.80;;;15.00;99.90;;;;;;5050391;28;20037;-74
2022/09/23 11:39:58;;;;;;;15.93;14.18;;;14.90;99.90;;;;;;5053182;28;20045;-76
2022/09/23 11:42:28;;;;;;;15.52;13.63;;;14.80;99.90;;;;;;5049135;28;20069;-75
2022/09/23 11:45:22;;;;;;;19.20;14.18;;;15.00;99.90;;;;;;5044133;28;20124;-74
2022/09/23 11:47:56;;;;;;;15.35;13.70;;;15.10;99.90;;;;;;5025964;28;20488;-73
2022/09/23 11:50:26;;;;;;;17.20;14.93;;;14.90;99.90;;;;;;5052292;28;20376;-74
2022/09/23 11:53:14;;;;;;;18.67;14.68;;;14.90;99.90;;;;;;5049233;28;20122;-73
2022/09/23 11:56:14;;;;;;;18.77;14.00;;;14.70;99.90;;;;;;5048304;28;20052;-76
2022/09/23 11:58:51;;;;;;;17.35;15.38;;;14.70;99.90;;;;;;5035904;28;20550;-77
2022/09/23 12:01:25;;;;;;;15.93;13.18;;;14.80;99.90;;;;;;5046851;28;20044;-75
2022/09/23 12:04:18;;;;;;;18.98;16.40;;;14.70;99.90;;;;;;5037718;28;20041;-75
2022/09/23 12:06:53;;;;;;;17.55;15.48;;;14.90;99.90;;;;;;5015632;28;20041;-76
2022/09/23 12:09:31;;;;;;;22.98;15.13;;;14.90;99.90;;;;;;5044054;28;20048;-75
2022/09/23 12:12:05;;;;;;;17.60;15.80;;;14.90;99.90;;;;;;5048515;28;20045;-75
2022/09/23 12:14:55;;;;;;;22.15;15.75;;;14.90;99.90;;;;;;5039144;28;20089;-76
2022/09/23 12:17:32;;;;;;;17.83;14.73;;;14.90;99.90;;;;;;5060254;28;20041;-75
2022/09/23 12:20:01;;;;;;;18.50;16.33;;;14.90;99.90;;;;;;5048487;28;20092;-72
2022/09/23 12:23:24;;;;;;;20.08;17.35;;;14.70;99.90;;;;;;5037007;28;20045;-74
2022/09/23 12:25:55;;;;;;;19.98;15.98;;;14.60;99.90;;;;;;5021675;28;20069;-75
2022/09/23 12:28:37;;;;;;;22.30;17.58;;;14.90;99.90;;;;;;5028796;28;20049;-76
2022/09/23 12:31:09;;;;;;;20.92;18.67;;;14.70;99.90;;;;;;5068855;28;20487;-74
2022/09/23 12:33:37;;;;;;;21.38;16.65;;;14.90;99.90;;;;;;5069046;28;20052;-74
2022/09/23 12:36:09;;;;;;;20.88;16.67;;;14.70;99.90;;;;;;5048884;28;20043;-73
2022/09/23 12:38:47;;;;;;;24.95;17.20;;;14.80;99.90;;;;;;5039490;28;20433;-73
2022/09/23 12:41:22;;;;;;;20.33;16.67;;;14.90;99.90;;;;;;5049012;28;20098;-74
2022/09/23 12:44:13;;;;;;;18.35;16.55;;;14.70;99.90;;;;;;5046598;28;20494;-74
2022/09/23 12:46:39;;;;;;;;;;;15.20;99.90;;;;;;5048545;28;20137;-72
2022/09/23 12:49:24;;;;;;;20.23;16.83;;;15.00;99.90;;;;;;5052327;28;19929;-73
2022/09/23 12:52:12;;;;;;;23.75;21.25;;;15.30;99.90;;;;;;5030741;28;20132;-74
2022/09/23 12:54:39;;;;;;;24.00;18.27;;;15.30;99.90;;;;;;5048384;28;20045;-73
2022/09/23 12:57:09;;;;;;;18.75;16.95;;;15.30;99.90;;;;;;5059647;28;20056;-73
2022/09/23 12:59:51;;;;;;;25.13;17.92;;;15.00;99.90;;;;;;5044855;28;20049;-73
2022/09/23 13:06:37;;;;;;;23.10;18.63;;;15.20;99.90;;;;;;5044385;28;20037;-74
2022/09/23 13:08:38;;;;;;;22.58;18.95;;;15.10;99.90;;;;;;5046176;28;20439;-72
2022/09/23 13:11:14;;;;;;;24.48;19.08;;;15.20;99.90;;;;;;5047449;28;20049;-74
2022/09/23 13:13:43;;;;;;;22.10;18.45;;;15.10;99.90;;;;;;5044447;28;20060;-74
2022/09/23 13:16:28;;;;;;;26.17;19.73;;;14.80;99.90;;;;;;5047477;28;20086;-74
2022/09/23 13:18:56;;;;;;;23.70;18.40;;;14.70;99.90;;;;;;5051762;28;20048;-74
2022/09/23 13:21:42;;;;;;;21.45;19.20;;;15.00;99.90;;;;;;5029552;28;20043;-74
2022/09/23 13:24:35;;;;;;;26.83;20.73;;;15.00;99.90;;;;;;5044261;28;20123;-74